sensor_id;sensor_type;location;lat;lon;timestamp;temperature;humidity
38860;DHT22;24609;48.316;16.174;2023-02-28T00:00:51;0.00;99.90
38860;DHT22;24609;48.316;16.174;2023-02-28T00:03:17;0.00;99.90
38860;DHT22;24609;48.316;16.174;2023-02-28T00:05:42;0.00;99.90
38860;DHT22;24609;48.316;16.174;2023-02-28T00:08:09;0.10;99.90
38860;DHT22;24609;48.316;16.174;2023-02-28T00:10:34;0.00;99.90
38860;DHT22;24609;48.316;16.174;2023-02-28T00:13:05;-0.10;99.90
38860;DHT22;24609;48.316;16.174;2023-02-28T00:15:32;-0.10;99.90
38860;DHT22;24609;48.316;16.174;2023-02-28T00:17:58;-0.20;99.90
38860;DHT22;24609;48.316;16.174;2023-02-28T00:20:24;-0.30;99.90
38860;DHT22;24609;48.316;16.174;2023-02-28T00:22:52;-0.30;99.90
38860;DHT22;24609;48.316;16.174;2023-02-28T00:25:21;-0.40;99.90
38860;DHT22;24609;48.316;16.174;2023-02-28T00:27:47;-0.50;99.90
38860;DHT22;24609;48.316;16.174;2023-02-28T00:30:18;-0.50;99.90
38860;DHT22;24609;48.316;16.174;2023-02-28T00:32:44;-0.70;99.90
38860;DHT22;24609;48.316;16.174;2023-02-28T00:35:10;-0.70;99.90
38860;DHT22;24609;48.316;16.174;2023-02-28T00:37:36;-0.80;99.90
38860;DHT22;24609;48.316;16.174;2023-02-28T00:40:02;-0.80;99.90
38860;DHT22;24609;48.316;16.174;2023-02-28T00:42:30;-1.00;99.90
38860;DHT22;24609;48.316;16.174;2023-02-28T00:44:56;-1.10;99.90
38860;DHT22;24609;48.316;16.174;2023-02-28T00:47:21;-1.10;99.90
38860;DHT22;24609;48.316;16.174;2023-02-28T00:49:47;-1.00;99.90
38860;DHT22;24609;48.316;16.174;2023-02-28T00:52:13;-1.00;99.90
38860;DHT22;24609;48.316;16.174;2023-02-28T00:54:38;-1.00;99.90
38860;DHT22;24609;48.316;16.174;2023-02-28T00:57:04;-1.00;99.90
38860;DHT22;24609;48.316;16.174;2023-02-28T00:59:30;-1.10;99.90
38860;DHT22;24609;48.316;16.174;2023-02-28T01:01:55;-1.20;99.90
38860;DHT22;24609;48.316;16.174;2023-02-28T01:04:21;-1.20;99.90
38860;DHT22;24609;48.316;16.174;2023-02-28T01:06:47;-1.30;99.90
38860;DHT22;24609;48.316;16.174;2023-02-28T01:09:12;-1.30;99.90
38860;DHT22;24609;48.316;16.174;2023-02-28T01:11:38;-1.30;99.90
38860;DHT22;24609;48.316;16.174;2023-02-28T01:14:06;-1.40;99.90
38860;DHT22;24609;48.316;16.174;2023-02-28T01:16:31;-1.40;99.90
38860;DHT22;24609;48.316;16.174;2023-02-28T01:18:57;-1.50;99.90
38860;DHT22;24609;48.316;16.174;2023-02-28T01:21:23;-1.50;99.90
38860;DHT22;24609;48.316;16.174;2023-02-28T01:23:49;-1.40;99.90
38860;DHT22;24609;48.316;16.174;2023-02-28T01:26:22;-1.40;99.90
38860;DHT22;24609;48.316;16.174;2023-02-28T01:28:49;-1.20;99.90
38860;DHT22;24609;48.316;16.174;2023-02-28T01:31:15;-1.20;99.90
38860;DHT22;24609;48.316;16.174;2023-02-28T01:33:41;-1.10;99.90
38860;DHT22;24609;48.316;16.174;2023-02-28T01:36:11;-1.10;99.90
38860;DHT22;24609;48.316;16.174;2023-02-28T01:38:37;-1.00;99.90
38860;DHT22;24609;48.316;16.174;2023-02-28T01:41:03;-1.00;99.90
38860;DHT22;24609;48.316;16.174;2023-02-28T01:43:35;-0.90;99.90
38860;DHT22;24609;48.316;16.174;2023-02-28T01:46:17;-0.80;99.90
38860;DHT22;24609;48.316;16.174;2023-02-28T01:48:46;-0.80;99.90
38860;DHT22;24609;48.316;16.174;2023-02-28T01:51:16;-0.80;99.90
38860;DHT22;24609;48.316;16.174;2023-02-28T01:53:48;-0.80;99.90
38860;DHT22;24609;48.316;16.174;2023-02-28T01:56:19;-0.70;99.90
38860;DHT22;24609;48.316;16.174;2023-02-28T01:58:53;-0.70;99.90
38860;DHT22;24609;48.316;16.174;2023-02-28T02:01:20;-0.60;99.90
38860;DHT22;24609;48.316;16.174;2023-02-28T02:03:55;-0.60;99.90
38860;DHT22;24609;48.316;16.174;2023-02-28T02:06:30;-0.60;99.90
38860;DHT22;24609;48.316;16.174;2023-02-28T02:08:56;-0.60;99.90
38860;DHT22;24609;48.316;16.174;2023-02-28T02:11:23;-0.50;99.90
38860;DHT22;24609;48.316;16.174;2023-02-28T02:25:03;-0.40;99.90
38860;DHT22;24609;48.316;16.174;2023-02-28T02:30:45;-0.50;99.90
38860;DHT22;24609;48.316;16.174;2023-02-28T02:35:54;-0.60;99.90
38860;DHT22;24609;48.316;16.174;2023-02-28T02:38:34;-0.50;99.90
38860;DHT22;24609;48.316;16.174;2023-02-28T02:44:31;-0.50;99.90
38860;DHT22;24609;48.316;16.174;2023-02-28T02:46:35;-0.40;99.90
38860;DHT22;24609;48.316;16.174;2023-02-28T02:49:06;-0.40;99.90
38860;DHT22;24609;48.316;16.174;2023-02-28T02:51:34;-0.40;99.90
38860;DHT22;24609;48.316;16.174;2023-02-28T02:54:06;-0.30;99.90
38860;DHT22;24609;48.316;16.174;2023-02-28T02:56:34;-0.30;99.90
38860;DHT22;24609;48.316;16.174;2023-02-28T02:59:04;-0.30;99.90
38860;DHT22;24609;48.316;16.174;2023-02-28T03:01:32;-0.30;99.90
38860;DHT22;24609;48.316;16.174;2023-02-28T03:04:13;-0.30;99.90
38860;DHT22;24609;48.316;16.174;2023-02-28T03:06:39;-0.40;99.90
38860;DHT22;24609;48.316;16.174;2023-02-28T03:09:05;-0.40;99.90
38860;DHT22;24609;48.316;16.174;2023-02-28T03:11:31;-0.50;99.90
38860;DHT22;24609;48.316;16.174;2023-02-28T03:16:46;-0.50;99.90
38860;DHT22;24609;48.316;16.174;2023-02-28T03:19:31;-0.50;99.90
38860;DHT22;24609;48.316;16.174;2023-02-28T03:25:14;-0.60;99.90
38860;DHT22;24609;48.316;16.174;2023-02-28T03:27:49;-0.70;99.90
38860;DHT22;24609;48.316;16.174;2023-02-28T03:30:45;-0.80;99.90
38860;DHT22;24609;48.316;16.174;2023-02-28T03:33:18;-0.90;99.90
38860;DHT22;24609;48.316;16.174;2023-02-28T03:36:11;-0.90;99.90
38860;DHT22;24609;48.316;16.174;2023-02-28T03:39:03;-1.00;99.90
38860;DHT22;24609;48.316;16.174;2023-02-28T03:41:47;-1.10;99.90
38860;DHT22;24609;48.316;16.174;2023-02-28T03:44:48;-1.10;99.90
38860;DHT22;24609;48.316;16.174;2023-02-28T03:50:13;-1.10;99.90
38860;DHT22;24609;48.316;16.174;2023-02-28T03:52:44;-1.20;99.90
38860;DHT22;24609;48.316;16.174;2023-02-28T03:55:14;-1.20;99.90
38860;DHT22;24609;48.316;16.174;2023-02-28T04:00:25;-1.20;99.90
38860;DHT22;24609;48.316;16.174;2023-02-28T04:02:54;-1.30;99.90
38860;DHT22;24609;48.316;16.174;2023-02-28T04:05:21;-1.30;99.90
38860;DHT22;24609;48.316;16.174;2023-02-28T04:07:47;-1.30;99.90
38860;DHT22;24609;48.316;16.174;2023-02-28T04:10:15;-1.30;99.90
38860;DHT22;24609;48.316;16.174;2023-02-28T04:12:41;-1.30;99.90
38860;DHT22;24609;48.316;16.174;2023-02-28T04:15:07;-1.30;99.90
38860;DHT22;24609;48.316;16.174;2023-02-28T04:17:33;-1.30;99.90
38860;DHT22;24609;48.316;16.174;2023-02-28T04:19:58;-1.30;99.90
38860;DHT22;24609;48.316;16.174;2023-02-28T04:22:24;-1.30;99.90
38860;DHT22;24609;48.316;16.174;2023-02-28T04:24:52;-1.30;99.90
38860;DHT22;24609;48.316;16.174;2023-02-28T04:27:20;-1.30;99.90
38860;DHT22;24609;48.316;16.174;2023-02-28T04:29:46;-1.40;99.90
38860;DHT22;24609;48.316;16.174;2023-02-28T04:32:12;-1.40;99.90
38860;DHT22;24609;48.316;16.174;2023-02-28T04:34:38;-1.40;99.90
38860;DHT22;24609;48.316;16.174;2023-02-28T04:37:06;-1.40;99.90
38860;DHT22;24609;48.316;16.174;2023-02-28T04:39:35;-1.40;99.90
38860;DHT22;24609;48.316;16.174;2023-02-28T04:42:01;-1.50;99.90
38860;DHT22;24609;48.316;16.174;2023-02-28T04:44:26;-1.40;99.90
38860;DHT22;24609;48.316;16.174;2023-02-28T04:46:52;-1.40;99.90
38860;DHT22;24609;48.316;16.174;2023-02-28T04:49:18;-1.40;99.90
38860;DHT22;24609;48.316;16.174;2023-02-28T04:51:43;-1.50;99.90
38860;DHT22;24609;48.316;16.174;2023-02-28T04:54:09;-1.50;99.90
38860;DHT22;24609;48.316;16.174;2023-02-28T04:56:35;-1.50;99.90
38860;DHT22;24609;48.316;16.174;2023-02-28T04:59:01;-1.60;99.90
38860;DHT22;24609;48.316;16.174;2023-02-28T05:01:32;-1.70;99.90
38860;DHT22;24609;48.316;16.174;2023-02-28T05:04:00;-1.80;99.90
38860;DHT22;24609;48.316;16.174;2023-02-28T05:06:28;-2.00;99.90
38860;DHT22;24609;48.316;16.174;2023-02-28T05:08:54;-2.00;99.90
38860;DHT22;24609;48.316;16.174;2023-02-28T05:13:51;-2.10;99.90
38860;DHT22;24609;48.316;16.174;2023-02-28T05:16:18;-2.00;99.90
38860;DHT22;24609;48.316;16.174;2023-02-28T05:18:44;-2.10;99.90
38860;DHT22;24609;48.316;16.174;2023-02-28T05:21:31;-2.10;99.90
38860;DHT22;24609;48.316;16.174;2023-02-28T05:23:59;-2.20;99.90
38860;DHT22;24609;48.316;16.174;2023-02-28T05:26:26;-2.20;99.90
38860;DHT22;24609;48.316;16.174;2023-02-28T05:28:52;-2.20;99.90
38860;DHT22;24609;48.316;16.174;2023-02-28T05:31:18;-2.20;99.90
38860;DHT22;24609;48.316;16.174;2023-02-28T05:33:43;-2.30;99.90
38860;DHT22;24609;48.316;16.174;2023-02-28T05:36:09;-2.40;99.90
38860;DHT22;24609;48.316;16.174;2023-02-28T05:38:35;-2.40;99.90
38860;DHT22;24609;48.316;16.174;2023-02-28T05:41:08;-2.50;99.90
38860;DHT22;24609;48.316;16.174;2023-02-28T05:43:34;-2.50;99.90
38860;DHT22;24609;48.316;16.174;2023-02-28T05:46:03;-2.50;99.90
38860;DHT22;24609;48.316;16.174;2023-02-28T05:48:29;-2.60;99.90
38860;DHT22;24609;48.316;16.174;2023-02-28T05:50:57;-2.60;99.90
38860;DHT22;24609;48.316;16.174;2023-02-28T05:53:23;-2.60;99.90
38860;DHT22;24609;48.316;16.174;2023-02-28T05:55:48;-2.60;99.90
38860;DHT22;24609;48.316;16.174;2023-02-28T05:58:14;-2.60;99.90
38860;DHT22;24609;48.316;16.174;2023-02-28T06:00:40;-2.60;99.90
38860;DHT22;24609;48.316;16.174;2023-02-28T06:03:05;-2.60;99.90
38860;DHT22;24609;48.316;16.174;2023-02-28T06:05:31;-2.50;99.90
38860;DHT22;24609;48.316;16.174;2023-02-28T06:07:57;-2.50;99.90
38860;DHT22;24609;48.316;16.174;2023-02-28T06:10:23;-2.50;99.90
38860;DHT22;24609;48.316;16.174;2023-02-28T06:12:48;-2.50;99.90
38860;DHT22;24609;48.316;16.174;2023-02-28T06:15:15;-2.40;99.90
38860;DHT22;24609;48.316;16.174;2023-02-28T06:17:43;-2.30;99.90
38860;DHT22;24609;48.316;16.174;2023-02-28T06:20:10;-2.10;99.90
38860;DHT22;24609;48.316;16.174;2023-02-28T06:22:38;-2.20;99.90
38860;DHT22;24609;48.316;16.174;2023-02-28T06:25:05;-2.00;99.90
38860;DHT22;24609;48.316;16.174;2023-02-28T06:27:33;-2.00;99.90
38860;DHT22;24609;48.316;16.174;2023-02-28T06:29:59;-1.70;99.90
38860;DHT22;24609;48.316;16.174;2023-02-28T06:32:24;-1.60;99.90
38860;DHT22;24609;48.316;16.174;2023-02-28T06:34:50;-1.50;99.90
38860;DHT22;24609;48.316;16.174;2023-02-28T06:37:17;-1.40;99.90
38860;DHT22;24609;48.316;16.174;2023-02-28T06:39:43;-1.30;99.90
38860;DHT22;24609;48.316;16.174;2023-02-28T06:42:08;-1.30;99.90
38860;DHT22;24609;48.316;16.174;2023-02-28T06:44:35;-1.20;99.90
38860;DHT22;24609;48.316;16.174;2023-02-28T06:47:01;-1.20;99.90
38860;DHT22;24609;48.316;16.174;2023-02-28T06:49:30;-1.20;99.90
38860;DHT22;24609;48.316;16.174;2023-02-28T06:51:56;-1.10;99.90
38860;DHT22;24609;48.316;16.174;2023-02-28T06:54:22;-1.10;99.90
38860;DHT22;24609;48.316;16.174;2023-02-28T06:56:48;-1.00;99.90
38860;DHT22;24609;48.316;16.174;2023-02-28T06:59:14;-0.90;99.90
38860;DHT22;24609;48.316;16.174;2023-02-28T07:01:40;-0.80;99.90
38860;DHT22;24609;48.316;16.174;2023-02-28T07:04:06;-0.70;99.90
38860;DHT22;24609;48.316;16.174;2023-02-28T07:06:32;-0.60;99.90
38860;DHT22;24609;48.316;16.174;2023-02-28T07:08:58;-0.50;99.90
38860;DHT22;24609;48.316;16.174;2023-02-28T07:11:26;-0.40;99.90
38860;DHT22;24609;48.316;16.174;2023-02-28T07:13:56;-0.30;99.90
38860;DHT22;24609;48.316;16.174;2023-02-28T07:16:23;-0.20;99.90
38860;DHT22;24609;48.316;16.174;2023-02-28T07:18:49;-0.10;99.90
38860;DHT22;24609;48.316;16.174;2023-02-28T07:21:15;-0.10;99.90
38860;DHT22;24609;48.316;16.174;2023-02-28T07:23:41;0.00;99.90
38860;DHT22;24609;48.316;16.174;2023-02-28T07:26:12;0.20;99.90
38860;DHT22;24609;48.316;16.174;2023-02-28T07:28:41;0.30;99.90
38860;DHT22;24609;48.316;16.174;2023-02-28T07:31:08;0.60;99.90
38860;DHT22;24609;48.316;16.174;2023-02-28T07:33:34;0.80;99.90
38860;DHT22;24609;48.316;16.174;2023-02-28T07:36:04;0.80;99.90
38860;DHT22;24609;48.316;16.174;2023-02-28T07:38:30;1.00;99.90
38860;DHT22;24609;48.316;16.174;2023-02-28T07:40:56;1.00;99.90
38860;DHT22;24609;48.316;16.174;2023-02-28T07:43:21;1.20;99.90
38860;DHT22;24609;48.316;16.174;2023-02-28T07:45:47;1.30;99.90
38860;DHT22;24609;48.316;16.174;2023-02-28T07:48:13;1.30;99.90
38860;DHT22;24609;48.316;16.174;2023-02-28T07:50:38;1.50;99.90
38860;DHT22;24609;48.316;16.174;2023-02-28T07:53:04;1.40;99.90
38860;DHT22;24609;48.316;16.174;2023-02-28T07:55:30;1.30;99.90
38860;DHT22;24609;48.316;16.174;2023-02-28T07:57:57;1.30;99.90
38860;DHT22;24609;48.316;16.174;2023-02-28T08:00:23;1.30;99.90
38860;DHT22;24609;48.316;16.174;2023-02-28T08:02:49;1.40;99.90
38860;DHT22;24609;48.316;16.174;2023-02-28T08:05:15;1.50;99.90
38860;DHT22;24609;48.316;16.174;2023-02-28T08:07:41;1.60;99.90
38860;DHT22;24609;48.316;16.174;2023-02-28T08:10:07;1.80;99.90
38860;DHT22;24609;48.316;16.174;2023-02-28T08:12:35;1.80;99.90
38860;DHT22;24609;48.316;16.174;2023-02-28T08:15:01;1.90;99.90
38860;DHT22;24609;48.316;16.174;2023-02-28T08:17:26;2.00;99.90
38860;DHT22;24609;48.316;16.174;2023-02-28T08:19:52;2.20;99.90
38860;DHT22;24609;48.316;16.174;2023-02-28T08:22:17;2.40;99.90
38860;DHT22;24609;48.316;16.174;2023-02-28T08:24:43;2.40;99.90
38860;DHT22;24609;48.316;16.174;2023-02-28T08:27:09;2.50;99.90
38860;DHT22;24609;48.316;16.174;2023-02-28T08:29:38;2.60;99.90
38860;DHT22;24609;48.316;16.174;2023-02-28T08:32:05;2.70;99.90
38860;DHT22;24609;48.316;16.174;2023-02-28T08:34:30;2.60;99.90
38860;DHT22;24609;48.316;16.174;2023-02-28T08:36:56;2.60;99.90
38860;DHT22;24609;48.316;16.174;2023-02-28T08:39:22;2.70;99.90
38860;DHT22;24609;48.316;16.174;2023-02-28T08:41:47;2.90;99.90
38860;DHT22;24609;48.316;16.174;2023-02-28T08:44:13;3.00;99.90
38860;DHT22;24609;48.316;16.174;2023-02-28T08:46:39;3.20;99.90
38860;DHT22;24609;48.316;16.174;2023-02-28T08:49:04;3.40;99.90
38860;DHT22;24609;48.316;16.174;2023-02-28T08:51:30;3.70;99.90
38860;DHT22;24609;48.316;16.174;2023-02-28T08:54:00;3.70;99.90
38860;DHT22;24609;48.316;16.174;2023-02-28T08:56:27;4.00;99.90
38860;DHT22;24609;48.316;16.174;2023-02-28T08:58:55;4.20;99.90
38860;DHT22;24609;48.316;16.174;2023-02-28T09:01:24;4.50;99.90
38860;DHT22;24609;48.316;16.174;2023-02-28T09:03:51;4.60;99.90
38860;DHT22;24609;48.316;16.174;2023-02-28T09:06:18;5.10;99.90
38860;DHT22;24609;48.316;16.174;2023-02-28T09:08:44;5.70;99.90
38860;DHT22;24609;48.316;16.174;2023-02-28T09:11:11;5.80;99.90
38860;DHT22;24609;48.316;16.174;2023-02-28T09:13:37;7.10;99.90
38860;DHT22;24609;48.316;16.174;2023-02-28T09:16:04;7.10;99.90
38860;DHT22;24609;48.316;16.174;2023-02-28T09:18:30;7.40;99.90
38860;DHT22;24609;48.316;16.174;2023-02-28T09:20:56;7.20;99.90
38860;DHT22;24609;48.316;16.174;2023-02-28T09:23:23;7.10;99.90
38860;DHT22;24609;48.316;16.174;2023-02-28T09:25:51;8.80;98.10
38860;DHT22;24609;48.316;16.174;2023-02-28T09:28:17;9.30;96.00
38860;DHT22;24609;48.316;16.174;2023-02-28T09:30:51;9.20;94.60
38860;DHT22;24609;48.316;16.174;2023-02-28T09:33:18;9.60;94.40
38860;DHT22;24609;48.316;16.174;2023-02-28T09:35:51;9.30;94.60
38860;DHT22;24609;48.316;16.174;2023-02-28T09:38:22;9.70;93.20
38860;DHT22;24609;48.316;16.174;2023-02-28T09:40:51;8.20;94.90
38860;DHT22;24609;48.316;16.174;2023-02-28T09:43:21;7.10;97.00
38860;DHT22;24609;48.316;16.174;2023-02-28T09:46:01;6.50;97.70
38860;DHT22;24609;48.316;16.174;2023-02-28T09:48:33;6.60;98.80
38860;DHT22;24609;48.316;16.174;2023-02-28T09:51:12;6.70;99.20
38860;DHT22;24609;48.316;16.174;2023-02-28T09:53:39;6.70;99.10
38860;DHT22;24609;48.316;16.174;2023-02-28T09:58:56;6.50;99.90
38860;DHT22;24609;48.316;16.174;2023-02-28T10:07:23;6.50;99.90
38860;DHT22;24609;48.316;16.174;2023-02-28T10:09:54;6.30;99.90
38860;DHT22;24609;48.316;16.174;2023-02-28T10:12:21;6.10;99.90
38860;DHT22;24609;48.316;16.174;2023-02-28T10:14:50;6.60;99.90
38860;DHT22;24609;48.316;16.174;2023-02-28T10:17:20;7.00;99.90
38860;DHT22;24609;48.316;16.174;2023-02-28T10:20:05;7.60;98.80
38860;DHT22;24609;48.316;16.174;2023-02-28T10:22:42;7.60;98.40
38860;DHT22;24609;48.316;16.174;2023-02-28T10:25:22;7.50;98.10
38860;DHT22;24609;48.316;16.174;2023-02-28T10:27:49;7.80;97.40
38860;DHT22;24609;48.316;16.174;2023-02-28T10:30:19;8.90;96.40
38860;DHT22;24609;48.316;16.174;2023-02-28T10:32:53;9.70;94.40
38860;DHT22;24609;48.316;16.174;2023-02-28T10:35:25;10.30;93.00
38860;DHT22;24609;48.316;16.174;2023-02-28T10:37:55;8.70;94.80
38860;DHT22;24609;48.316;16.174;2023-02-28T10:43:22;8.80;95.50
38860;DHT22;24609;48.316;16.174;2023-02-28T10:46:11;7.10;97.30
38860;DHT22;24609;48.316;16.174;2023-02-28T10:51:08;8.70;96.70
38860;DHT22;24609;48.316;16.174;2023-02-28T10:53:55;8.80;95.40
38860;DHT22;24609;48.316;16.174;2023-02-28T10:56:22;12.20;87.90
38860;DHT22;24609;48.316;16.174;2023-02-28T11:01:44;13.60;99.90
38860;DHT22;24609;48.316;16.174;2023-02-28T11:09:39;11.20;99.90
38860;DHT22;24609;48.316;16.174;2023-02-28T11:12:08;10.00;99.90
38860;DHT22;24609;48.316;16.174;2023-02-28T11:14:58;10.20;99.90
38860;DHT22;24609;48.316;16.174;2023-02-28T11:17:28;10.20;99.90
38860;DHT22;24609;48.316;16.174;2023-02-28T11:20:01;11.50;99.90
38860;DHT22;24609;48.316;16.174;2023-02-28T11:22:35;12.60;99.90
38860;DHT22;24609;48.316;16.174;2023-02-28T11:25:09;13.30;87.10
38860;DHT22;24609;48.316;16.174;2023-02-28T11:27:54;11.60;50.60
38860;DHT22;24609;48.316;16.174;2023-02-28T11:30:40;8.90;67.00
38860;DHT22;24609;48.316;16.174;2023-02-28T11:33:32;7.40;99.90
38860;DHT22;24609;48.316;16.174;2023-02-28T11:36:24;7.10;99.90
38860;DHT22;24609;48.316;16.174;2023-02-28T11:38:50;7.40;1.00
38860;DHT22;24609;48.316;16.174;2023-02-28T11:41:34;7.30;1.00
38860;DHT22;24609;48.316;16.174;2023-02-28T11:55:53;9.80;83.00
38860;DHT22;24609;48.316;16.174;2023-02-28T12:12:30;11.00;99.30
38860;DHT22;24609;48.316;16.174;2023-02-28T12:18:04;9.90;52.90
38860;DHT22;24609;48.316;16.174;2023-02-28T12:20:59;8.30;70.30
38860;DHT22;24609;48.316;16.174;2023-02-28T12:23:38;7.50;89.70
38860;DHT22;24609;48.316;16.174;2023-02-28T12:29:00;6.70;99.90
38860;DHT22;24609;48.316;16.174;2023-02-28T12:31:30;6.50;99.90
38860;DHT22;24609;48.316;16.174;2023-02-28T12:34:01;8.50;99.90
38860;DHT22;24609;48.316;16.174;2023-02-28T12:36:28;8.40;99.90
38860;DHT22;24609;48.316;16.174;2023-02-28T12:39:12;7.80;99.90
38860;DHT22;24609;48.316;16.174;2023-02-28T12:41:54;7.30;99.90
38860;DHT22;24609;48.316;16.174;2023-02-28T12:44:23;6.50;99.90
38860;DHT22;24609;48.316;16.174;2023-02-28T12:46:55;6.10;99.90
38860;DHT22;24609;48.316;16.174;2023-02-28T12:49:30;6.20;99.90
38860;DHT22;24609;48.316;16.174;2023-02-28T12:51:59;6.40;99.90
38860;DHT22;24609;48.316;16.174;2023-02-28T12:59:55;9.40;89.90
38860;DHT22;24609;48.316;16.174;2023-02-28T13:10:48;7.70;99.90
38860;DHT22;24609;48.316;16.174;2023-02-28T13:13:22;8.20;99.60
38860;DHT22;24609;48.316;16.174;2023-02-28T13:16:09;7.90;99.90
38860;DHT22;24609;48.316;16.174;2023-02-28T13:19:08;7.80;99.80
38860;DHT22;24609;48.316;16.174;2023-02-28T13:21:43;8.10;99.90
38860;DHT22;24609;48.316;16.174;2023-02-28T13:24:10;7.70;94.10
38860;DHT22;24609;48.316;16.174;2023-02-28T13:29:50;6.60;99.90
38860;DHT22;24609;48.316;16.174;2023-02-28T13:47:53;7.40;96.60
38860;DHT22;24609;48.316;16.174;2023-02-28T13:50:33;7.20;99.90
38860;DHT22;24609;48.316;16.174;2023-02-28T14:04:09;6.90;99.90
38860;DHT22;24609;48.316;16.174;2023-02-28T14:06:51;7.00;99.90
38860;DHT22;24609;48.316;16.174;2023-02-28T14:09:37;6.90;96.60
38860;DHT22;24609;48.316;16.174;2023-02-28T14:18:16;6.80;99.90
38860;DHT22;24609;48.316;16.174;2023-02-28T14:20:43;6.80;99.90
38860;DHT22;24609;48.316;16.174;2023-02-28T14:31:18;6.70;99.90
38860;DHT22;24609;48.316;16.174;2023-02-28T14:36:36;6.30;99.90
38860;DHT22;24609;48.316;16.174;2023-02-28T14:39:10;6.10;99.90
38860;DHT22;24609;48.316;16.174;2023-02-28T14:41:39;6.00;99.90
38860;DHT22;24609;48.316;16.174;2023-02-28T14:44:22;6.00;99.90
38860;DHT22;24609;48.316;16.174;2023-02-28T14:46:57;6.10;99.90
38860;DHT22;24609;48.316;16.174;2023-02-28T14:49:36;6.10;99.90
38860;DHT22;24609;48.316;16.174;2023-02-28T14:54:38;5.90;99.90
38860;DHT22;24609;48.316;16.174;2023-02-28T14:57:05;5.80;99.90
38860;DHT22;24609;48.316;16.174;2023-02-28T14:59:33;5.60;99.20
38860;DHT22;24609;48.316;16.174;2023-02-28T15:02:23;5.40;98.50
38860;DHT22;24609;48.316;16.174;2023-02-28T15:04:57;5.40;99.90
38860;DHT22;24609;48.316;16.174;2023-02-28T15:07:23;5.40;99.90
38860;DHT22;24609;48.316;16.174;2023-02-28T15:12:39;5.20;99.90
38860;DHT22;24609;48.316;16.174;2023-02-28T15:15:13;5.20;99.90
38860;DHT22;24609;48.316;16.174;2023-02-28T15:17:39;5.10;99.90
38860;DHT22;24609;48.316;16.174;2023-02-28T15:20:11;5.00;99.90
38860;DHT22;24609;48.316;16.174;2023-02-28T15:22:38;5.00;99.90
38860;DHT22;24609;48.316;16.174;2023-02-28T15:25:06;4.90;99.90
38860;DHT22;24609;48.316;16.174;2023-02-28T15:27:38;4.90;99.90
38860;DHT22;24609;48.316;16.174;2023-02-28T15:30:11;4.90;99.90
38860;DHT22;24609;48.316;16.174;2023-02-28T15:32:40;4.90;99.90
38860;DHT22;24609;48.316;16.174;2023-02-28T15:38:16;4.90;99.90
38860;DHT22;24609;48.316;16.174;2023-02-28T15:40:45;4.80;99.90
38860;DHT22;24609;48.316;16.174;2023-02-28T15:43:25;4.70;99.90
38860;DHT22;24609;48.316;16.174;2023-02-28T15:46:14;4.60;99.90
38860;DHT22;24609;48.316;16.174;2023-02-28T15:48:55;4.60;99.90
38860;DHT22;24609;48.316;16.174;2023-02-28T15:51:34;4.50;99.90
38860;DHT22;24609;48.316;16.174;2023-02-28T15:54:12;4.50;99.90
38860;DHT22;24609;48.316;16.174;2023-02-28T15:56:45;4.40;99.90
38860;DHT22;24609;48.316;16.174;2023-02-28T15:59:21;4.30;99.90
38860;DHT22;24609;48.316;16.174;2023-02-28T16:02:18;4.30;1.00
38860;DHT22;24609;48.316;16.174;2023-02-28T16:04:59;4.30;99.90
38860;DHT22;24609;48.316;16.174;2023-02-28T16:07:26;4.20;95.10
38860;DHT22;24609;48.316;16.174;2023-02-28T16:09:52;4.10;95.30
38860;DHT22;24609;48.316;16.174;2023-02-28T16:12:28;4.00;95.90
38860;DHT22;24609;48.316;16.174;2023-02-28T16:14:57;3.90;95.80
38860;DHT22;24609;48.316;16.174;2023-02-28T16:17:26;3.90;95.90
38860;DHT22;24609;48.316;16.174;2023-02-28T16:19:53;3.90;96.10
38860;DHT22;24609;48.316;16.174;2023-02-28T16:22:19;3.70;96.70
38860;DHT22;24609;48.316;16.174;2023-02-28T16:24:44;3.60;97.20
38860;DHT22;24609;48.316;16.174;2023-02-28T16:27:17;3.50;97.30
38860;DHT22;24609;48.316;16.174;2023-02-28T16:29:44;3.40;97.90
38860;DHT22;24609;48.316;16.174;2023-02-28T16:32:13;3.40;97.90
38860;DHT22;24609;48.316;16.174;2023-02-28T16:34:39;3.30;98.20
38860;DHT22;24609;48.316;16.174;2023-02-28T16:37:13;3.30;98.30
38860;DHT22;24609;48.316;16.174;2023-02-28T16:39:40;3.20;99.20
38860;DHT22;24609;48.316;16.174;2023-02-28T16:42:08;3.00;99.90
38860;DHT22;24609;48.316;16.174;2023-02-28T16:44:36;2.90;99.90
38860;DHT22;24609;48.316;16.174;2023-02-28T16:47:03;2.80;99.90
38860;DHT22;24609;48.316;16.174;2023-02-28T16:49:29;2.60;99.90
38860;DHT22;24609;48.316;16.174;2023-02-28T16:51:55;2.40;99.90
38860;DHT22;24609;48.316;16.174;2023-02-28T16:54:20;2.20;99.90
38860;DHT22;24609;48.316;16.174;2023-02-28T16:56:48;1.90;99.90
38860;DHT22;24609;48.316;16.174;2023-02-28T16:59:17;1.80;99.90
38860;DHT22;24609;48.316;16.174;2023-02-28T17:01:43;1.70;99.90
38860;DHT22;24609;48.316;16.174;2023-02-28T17:04:11;1.50;99.90
38860;DHT22;24609;48.316;16.174;2023-02-28T17:06:36;1.20;99.90
38860;DHT22;24609;48.316;16.174;2023-02-28T17:09:02;1.10;99.90
38860;DHT22;24609;48.316;16.174;2023-02-28T17:11:28;1.10;99.90
38860;DHT22;24609;48.316;16.174;2023-02-28T17:13:54;1.20;99.90
38860;DHT22;24609;48.316;16.174;2023-02-28T17:16:30;1.10;99.90
38860;DHT22;24609;48.316;16.174;2023-02-28T17:19:02;0.90;99.90
38860;DHT22;24609;48.316;16.174;2023-02-28T17:21:29;0.70;99.90
38860;DHT22;24609;48.316;16.174;2023-02-28T17:23:55;0.60;99.90
38860;DHT22;24609;48.316;16.174;2023-02-28T17:26:22;0.50;99.90
38860;DHT22;24609;48.316;16.174;2023-02-28T17:28:51;0.50;99.90
38860;DHT22;24609;48.316;16.174;2023-02-28T17:31:17;0.50;99.90
38860;DHT22;24609;48.316;16.174;2023-02-28T17:33:43;0.40;99.90
38860;DHT22;24609;48.316;16.174;2023-02-28T17:36:30;0.30;99.90
38860;DHT22;24609;48.316;16.174;2023-02-28T17:38:56;0.30;99.90
38860;DHT22;24609;48.316;16.174;2023-02-28T17:41:23;0.30;99.90
38860;DHT22;24609;48.316;16.174;2023-02-28T17:43:51;0.30;99.90
38860;DHT22;24609;48.316;16.174;2023-02-28T17:46:22;0.40;99.90
38860;DHT22;24609;48.316;16.174;2023-02-28T17:48:49;0.40;99.90
38860;DHT22;24609;48.316;16.174;2023-02-28T17:51:16;0.40;99.90
38860;DHT22;24609;48.316;16.174;2023-02-28T17:53:42;0.50;99.90
38860;DHT22;24609;48.316;16.174;2023-02-28T17:56:16;0.50;99.90
38860;DHT22;24609;48.316;16.174;2023-02-28T17:58:43;0.50;99.90
38860;DHT22;24609;48.316;16.174;2023-02-28T18:01:23;0.50;99.90
38860;DHT22;24609;48.316;16.174;2023-02-28T18:03:53;0.60;99.90
38860;DHT22;24609;48.316;16.174;2023-02-28T18:06:25;0.60;99.90
38860;DHT22;24609;48.316;16.174;2023-02-28T18:08:53;0.70;99.90
38860;DHT22;24609;48.316;16.174;2023-02-28T18:11:20;0.70;99.90
38860;DHT22;24609;48.316;16.174;2023-02-28T18:13:47;0.70;99.90
38860;DHT22;24609;48.316;16.174;2023-02-28T18:16:15;0.80;99.90
38860;DHT22;24609;48.316;16.174;2023-02-28T18:18:41;0.80;99.90